sensor_id;sensor_type;location;lat;lon;timestamp;temperature;humidity
36548;DHT22;22551;52.206;4.856;2023-05-03T00:08:59;6.20;99.90
36548;DHT22;22551;52.206;4.856;2023-05-03T00:14:02;6.10;99.90
36548;DHT22;22551;52.206;4.856;2023-05-03T00:19:04;6.00;99.90
36548;DHT22;22551;52.206;4.856;2023-05-03T00:24:07;6.00;99.90
36548;DHT22;22551;52.206;4.856;2023-05-03T00:29:10;6.00;99.90
36548;DHT22;22551;52.206;4.856;2023-05-03T00:34:12;5.90;99.90
36548;DHT22;22551;52.206;4.856;2023-05-03T00:39:16;5.90;99.90
36548;DHT22;22551;52.206;4.856;2023-05-03T00:44:18;5.90;99.90
36548;DHT22;22551;52.206;4.856;2023-05-03T00:49:20;5.80;99.90
36548;DHT22;22551;52.206;4.856;2023-05-03T00:54:28;5.80;99.90
36548;DHT22;22551;52.206;4.856;2023-05-03T00:59:32;5.90;99.90
36548;DHT22;22551;52.206;4.856;2023-05-03T01:04:35;6.00;99.90
36548;DHT22;22551;52.206;4.856;2023-05-03T01:09:44;6.00;99.90
36548;DHT22;22551;52.206;4.856;2023-05-03T01:14:58;6.00;99.90
36548;DHT22;22551;52.206;4.856;2023-05-03T01:20:07;6.00;99.90
36548;DHT22;22551;52.206;4.856;2023-05-03T01:25:13;6.00;99.90
36548;DHT22;22551;52.206;4.856;2023-05-03T01:30:16;6.00;99.90
36548;DHT22;22551;52.206;4.856;2023-05-03T01:35:25;6.00;99.90
36548;DHT22;22551;52.206;4.856;2023-05-03T02:39:42;5.80;99.90
36548;DHT22;22551;52.206;4.856;2023-05-03T02:44:45;5.90;99.90
36548;DHT22;22551;52.206;4.856;2023-05-03T02:49:48;5.90;99.90
36548;DHT22;22551;52.206;4.856;2023-05-03T02:54:52;5.80;99.90
36548;DHT22;22551;52.206;4.856;2023-05-03T02:59:54;5.70;99.90
36548;DHT22;22551;52.206;4.856;2023-05-03T03:04:56;5.70;99.90
36548;DHT22;22551;52.206;4.856;2023-05-03T03:43:05;5.50;99.90
36548;DHT22;22551;52.206;4.856;2023-05-03T03:48:07;5.50;99.90
36548;DHT22;22551;52.206;4.856;2023-05-03T03:53:09;5.40;99.90
36548;DHT22;22551;52.206;4.856;2023-05-03T03:58:13;5.30;99.90
36548;DHT22;22551;52.206;4.856;2023-05-03T04:03:15;5.30;99.90
36548;DHT22;22551;52.206;4.856;2023-05-03T04:08:17;5.20;99.90
36548;DHT22;22551;52.206;4.856;2023-05-03T04:13:21;5.10;99.90
36548;DHT22;22551;52.206;4.856;2023-05-03T04:18:23;5.00;99.90
36548;DHT22;22551;52.206;4.856;2023-05-03T04:23:25;4.90;99.90
36548;DHT22;22551;52.206;4.856;2023-05-03T04:28:29;4.80;99.90
36548;DHT22;22551;52.206;4.856;2023-05-03T04:33:31;4.80;99.90
36548;DHT22;22551;52.206;4.856;2023-05-03T04:38:33;4.80;99.90
36548;DHT22;22551;52.206;4.856;2023-05-03T04:43:37;4.70;99.90
36548;DHT22;22551;52.206;4.856;2023-05-03T04:48:39;4.70;99.90
36548;DHT22;22551;52.206;4.856;2023-05-03T04:53:42;4.70;99.90
36548;DHT22;22551;52.206;4.856;2023-05-03T05:09:19;5.00;99.90
36548;DHT22;22551;52.206;4.856;2023-05-03T05:14:22;5.00;99.90
36548;DHT22;22551;52.206;4.856;2023-05-03T05:19:24;5.10;99.90
36548;DHT22;22551;52.206;4.856;2023-05-03T05:24:28;5.20;99.90
36548;DHT22;22551;52.206;4.856;2023-05-03T05:50:13;6.10;99.90
36548;DHT22;22551;52.206;4.856;2023-05-03T05:55:15;6.30;99.90
36548;DHT22;22551;52.206;4.856;2023-05-03T06:00:18;6.60;99.90
36548;DHT22;22551;52.206;4.856;2023-05-03T06:05:23;6.80;99.90
36548;DHT22;22551;52.206;4.856;2023-05-03T06:10:25;7.10;99.90
36548;DHT22;22551;52.206;4.856;2023-05-03T06:15:27;7.40;99.90
36548;DHT22;22551;52.206;4.856;2023-05-03T06:20:31;7.70;99.90
36548;DHT22;22551;52.206;4.856;2023-05-03T06:25:33;7.90;99.90
36548;DHT22;22551;52.206;4.856;2023-05-03T06:30:36;8.10;99.90
36548;DHT22;22551;52.206;4.856;2023-05-03T06:35:40;8.20;99.90
36548;DHT22;22551;52.206;4.856;2023-05-03T06:40:43;8.20;99.90
36548;DHT22;22551;52.206;4.856;2023-05-03T06:45:46;8.20;99.90
36548;DHT22;22551;52.206;4.856;2023-05-03T06:50:49;8.40;99.90
36548;DHT22;22551;52.206;4.856;2023-05-03T06:55:52;8.50;99.90
36548;DHT22;22551;52.206;4.856;2023-05-03T07:00:54;8.60;99.90
36548;DHT22;22551;52.206;4.856;2023-05-03T07:05:58;8.80;99.90
36548;DHT22;22551;52.206;4.856;2023-05-03T07:11:00;8.90;99.90
36548;DHT22;22551;52.206;4.856;2023-05-03T07:16:04;9.10;99.90
36548;DHT22;22551;52.206;4.856;2023-05-03T07:21:08;9.30;99.90
36548;DHT22;22551;52.206;4.856;2023-05-03T07:26:10;9.30;99.90
36548;DHT22;22551;52.206;4.856;2023-05-03T07:31:12;9.70;99.90
36548;DHT22;22551;52.206;4.856;2023-05-03T07:36:15;9.60;99.90
36548;DHT22;22551;52.206;4.856;2023-05-03T07:41:17;9.90;99.90
36548;DHT22;22551;52.206;4.856;2023-05-03T07:46:20;10.20;99.90
36548;DHT22;22551;52.206;4.856;2023-05-03T07:51:24;10.30;99.90
36548;DHT22;22551;52.206;4.856;2023-05-03T07:56:26;10.50;99.90
36548;DHT22;22551;52.206;4.856;2023-05-03T08:01:29;10.70;99.90
36548;DHT22;22551;52.206;4.856;2023-05-03T08:06:33;10.70;99.90
36548;DHT22;22551;52.206;4.856;2023-05-03T08:11:37;11.10;99.90
36548;DHT22;22551;52.206;4.856;2023-05-03T08:16:40;11.40;99.90
36548;DHT22;22551;52.206;4.856;2023-05-03T08:21:43;11.60;99.90
36548;DHT22;22551;52.206;4.856;2023-05-03T08:26:46;12.00;99.90
36548;DHT22;22551;52.206;4.856;2023-05-03T08:31:49;12.20;99.90
36548;DHT22;22551;52.206;4.856;2023-05-03T08:36:52;12.00;99.90
36548;DHT22;22551;52.206;4.856;2023-05-03T08:41:54;11.60;99.90
36548;DHT22;22551;52.206;4.856;2023-05-03T08:46:58;12.00;99.90
36548;DHT22;22551;52.206;4.856;2023-05-03T08:52:02;12.90;99.90
36548;DHT22;22551;52.206;4.856;2023-05-03T08:57:10;12.60;99.90
36548;DHT22;22551;52.206;4.856;2023-05-03T09:02:13;12.50;99.90
36548;DHT22;22551;52.206;4.856;2023-05-03T09:07:17;12.70;99.90
36548;DHT22;22551;52.206;4.856;2023-05-03T09:12:32;13.20;99.90
36548;DHT22;22551;52.206;4.856;2023-05-03T09:17:36;13.40;99.90
36548;DHT22;22551;52.206;4.856;2023-05-03T09:22:49;13.10;99.90
36548;DHT22;22551;52.206;4.856;2023-05-03T09:27:59;12.90;99.90
36548;DHT22;22551;52.206;4.856;2023-05-03T09:33:02;13.20;99.90
36548;DHT22;22551;52.206;4.856;2023-05-03T09:38:06;13.60;99.90
36548;DHT22;22551;52.206;4.856;2023-05-03T09:43:10;14.70;99.90
36548;DHT22;22551;52.206;4.856;2023-05-03T09:48:15;13.70;99.90
36548;DHT22;22551;52.206;4.856;2023-05-03T09:53:20;14.30;99.90
36548;DHT22;22551;52.206;4.856;2023-05-03T09:58:25;13.30;99.90
36548;DHT22;22551;52.206;4.856;2023-05-03T10:03:33;14.00;99.90
36548;DHT22;22551;52.206;4.856;2023-05-03T10:08:48;14.50;99.90
36548;DHT22;22551;52.206;4.856;2023-05-03T10:13:52;14.70;99.90
36548;DHT22;22551;52.206;4.856;2023-05-03T10:19:02;14.70;99.90
36548;DHT22;22551;52.206;4.856;2023-05-03T10:24:11;14.50;99.90
36548;DHT22;22551;52.206;4.856;2023-05-03T10:29:45;15.40;99.90
36548;DHT22;22551;52.206;4.856;2023-05-03T10:34:55;16.20;99.90
36548;DHT22;22551;52.206;4.856;2023-05-03T10:40:09;15.60;99.90
36548;DHT22;22551;52.206;4.856;2023-05-03T10:45:21;15.70;99.90
36548;DHT22;22551;52.206;4.856;2023-05-03T10:50:26;14.90;99.90
36548;DHT22;22551;52.206;4.856;2023-05-03T10:55:31;15.20;99.90
36548;DHT22;22551;52.206;4.856;2023-05-03T11:00:37;15.40;99.90
36548;DHT22;22551;52.206;4.856;2023-05-03T11:05:41;15.40;99.90
36548;DHT22;22551;52.206;4.856;2023-05-03T11:10:45;15.10;99.90
36548;DHT22;22551;52.206;4.856;2023-05-03T11:15:48;14.70;99.90
36548;DHT22;22551;52.206;4.856;2023-05-03T11:20:52;15.30;99.90
36548;DHT22;22551;52.206;4.856;2023-05-03T11:25:56;15.90;99.90
36548;DHT22;22551;52.206;4.856;2023-05-03T11:30:59;16.20;99.90
36548;DHT22;22551;52.206;4.856;2023-05-03T11:36:02;15.60;99.90
36548;DHT22;22551;52.206;4.856;2023-05-03T11:41:13;15.50;99.90
36548;DHT22;22551;52.206;4.856;2023-05-03T11:46:20;15.50;99.90
36548;DHT22;22551;52.206;4.856;2023-05-03T11:51:24;15.20;99.90
36548;DHT22;22551;52.206;4.856;2023-05-03T11:56:29;15.10;99.90
36548;DHT22;22551;52.206;4.856;2023-05-03T12:01:32;15.10;99.90
36548;DHT22;22551;52.206;4.856;2023-05-03T12:06:36;15.10;99.90
36548;DHT22;22551;52.206;4.856;2023-05-03T12:11:43;14.70;99.90
36548;DHT22;22551;52.206;4.856;2023-05-03T12:16:46;15.20;99.90
36548;DHT22;22551;52.206;4.856;2023-05-03T12:21:50;15.00;99.90
36548;DHT22;22551;52.206;4.856;2023-05-03T12:26:53;14.90;99.90
36548;DHT22;22551;52.206;4.856;2023-05-03T12:31:56;15.10;99.90
36548;DHT22;22551;52.206;4.856;2023-05-03T12:37:02;15.40;99.90
36548;DHT22;22551;52.206;4.856;2023-05-03T12:42:06;15.10;99.90
36548;DHT22;22551;52.206;4.856;2023-05-03T12:47:09;14.80;99.90
36548;DHT22;22551;52.206;4.856;2023-05-03T12:52:11;15.00;99.90
36548;DHT22;22551;52.206;4.856;2023-05-03T12:57:15;15.00;99.90
36548;DHT22;22551;52.206;4.856;2023-05-03T13:02:17;15.20;99.90
36548;DHT22;22551;52.206;4.856;2023-05-03T13:07:21;14.80;99.90
36548;DHT22;22551;52.206;4.856;2023-05-03T13:12:26;14.70;99.90
36548;DHT22;22551;52.206;4.856;2023-05-03T13:17:30;14.80;99.90
36548;DHT22;22551;52.206;4.856;2023-05-03T13:22:32;14.70;99.90
36548;DHT22;22551;52.206;4.856;2023-05-03T13:27:36;14.70;99.90
36548;DHT22;22551;52.206;4.856;2023-05-03T13:32:38;14.90;99.90
36548;DHT22;22551;52.206;4.856;2023-05-03T13:37:40;14.90;99.90
36548;DHT22;22551;52.206;4.856;2023-05-03T13:42:44;14.30;99.90
36548;DHT22;22551;52.206;4.856;2023-05-03T13:47:47;14.20;99.90
36548;DHT22;22551;52.206;4.856;2023-05-03T13:52:49;14.60;99.90
36548;DHT22;22551;52.206;4.856;2023-05-03T13:57:52;13.90;99.90
36548;DHT22;22551;52.206;4.856;2023-05-03T14:02:54;14.10;99.90
36548;DHT22;22551;52.206;4.856;2023-05-03T14:07:57;15.00;99.90
36548;DHT22;22551;52.206;4.856;2023-05-03T14:13:00;14.90;99.90
36548;DHT22;22551;52.206;4.856;2023-05-03T14:18:06;15.10;99.90
36548;DHT22;22551;52.206;4.856;2023-05-03T14:23:09;14.90;99.90
36548;DHT22;22551;52.206;4.856;2023-05-03T14:28:12;15.10;99.90
36548;DHT22;22551;52.206;4.856;2023-05-03T14:33:14;14.80;99.90
36548;DHT22;22551;52.206;4.856;2023-05-03T14:38:17;14.80;99.90
36548;DHT22;22551;52.206;4.856;2023-05-03T14:43:21;14.60;99.90
36548;DHT22;22551;52.206;4.856;2023-05-03T14:48:23;15.00;99.90
36548;DHT22;22551;52.206;4.856;2023-05-03T14:53:25;14.80;99.90
36548;DHT22;22551;52.206;4.856;2023-05-03T14:58:29;14.80;99.90
36548;DHT22;22551;52.206;4.856;2023-05-03T15:03:32;14.60;99.90
36548;DHT22;22551;52.206;4.856;2023-05-03T15:08:35;15.20;99.90
36548;DHT22;22551;52.206;4.856;2023-05-03T15:13:40;15.10;99.90
36548;DHT22;22551;52.206;4.856;2023-05-03T15:18:42;15.30;99.90
36548;DHT22;22551;52.206;4.856;2023-05-03T15:23:47;14.90;99.90
36548;DHT22;22551;52.206;4.856;2023-05-03T15:28:52;14.80;99.90
36548;DHT22;22551;52.206;4.856;2023-05-03T15:33:54;14.80;99.90
36548;DHT22;22551;52.206;4.856;2023-05-03T15:38:57;14.70;99.90
36548;DHT22;22551;52.206;4.856;2023-05-03T15:44:01;14.90;99.90
36548;DHT22;22551;52.206;4.856;2023-05-03T15:49:04;14.80;99.90
36548;DHT22;22551;52.206;4.856;2023-05-03T15:54:07;14.90;99.90
36548;DHT22;22551;52.206;4.856;2023-05-03T15:59:10;14.30;99.90
36548;DHT22;22551;52.206;4.856;2023-05-03T16:04:14;14.70;99.90
36548;DHT22;22551;52.206;4.856;2023-05-03T16:09:16;14.60;99.90
36548;DHT22;22551;52.206;4.856;2023-05-03T16:14:20;14.70;99.90
36548;DHT22;22551;52.206;4.856;2023-05-03T16:19:24;14.50;99.90
36548;DHT22;22551;52.206;4.856;2023-05-03T16:24:26;14.40;99.90
36548;DHT22;22551;52.206;4.856;2023-05-03T16:29:32;14.30;99.90
36548;DHT22;22551;52.206;4.856;2023-05-03T16:34:34;14.30;99.90
36548;DHT22;22551;52.206;4.856;2023-05-03T16:39:36;14.20;99.90
36548;DHT22;22551;52.206;4.856;2023-05-03T16:44:40;14.50;99.90
36548;DHT22;22551;52.206;4.856;2023-05-03T16:49:42;13.90;99.90
36548;DHT22;22551;52.206;4.856;2023-05-03T16:54:44;13.80;99.90
36548;DHT22;22551;52.206;4.856;2023-05-03T16:59:48;13.80;99.90
36548;DHT22;22551;52.206;4.856;2023-05-03T17:04:50;13.50;99.90
36548;DHT22;22551;52.206;4.856;2023-05-03T17:09:52;13.40;99.90
36548;DHT22;22551;52.206;4.856;2023-05-03T17:14:55;13.40;99.90
36548;DHT22;22551;52.206;4.856;2023-05-03T17:19:58;13.30;99.90
36548;DHT22;22551;52.206;4.856;2023-05-03T17:25:01;13.20;99.90
36548;DHT22;22551;52.206;4.856;2023-05-03T17:30:06;13.30;99.90
36548;DHT22;22551;52.206;4.856;2023-05-03T17:35:09;13.20;99.90
36548;DHT22;22551;52.206;4.856;2023-05-03T17:40:12;13.10;99.90
36548;DHT22;22551;52.206;4.856;2023-05-03T17:45:16;12.90;99.90
36548;DHT22;22551;52.206;4.856;2023-05-03T17:50:18;12.80;99.90
36548;DHT22;22551;52.206;4.856;2023-05-03T17:55:21;12.70;99.90
36548;DHT22;22551;52.206;4.856;2023-05-03T18:00:24;12.70;99.90
36548;DHT22;22551;52.206;4.856;2023-05-03T18:05:27;12.50;99.90
36548;DHT22;22551;52.206;4.856;2023-05-03T18:10:35;12.50;99.90
36548;DHT22;22551;52.206;4.856;2023-05-03T18:15:39;12.40;99.90
36548;DHT22;22551;52.206;4.856;2023-05-03T18:20:41;12.30;99.90
36548;DHT22;22551;52.206;4.856;2023-05-03T18:25:43;12.20;99.90
36548;DHT22;22551;52.206;4.856;2023-05-03T18:30:48;12.20;99.90
36548;DHT22;22551;52.206;4.856;2023-05-03T18:35:52;12.20;99.90
36548;DHT22;22551;52.206;4.856;2023-05-03T18:40:54;12.20;99.90
36548;DHT22;22551;52.206;4.856;2023-05-03T18:45:58;12.10;99.90
36548;DHT22;22551;52.206;4.856;2023-05-03T18:51:02;12.00;99.90
36548;DHT22;22551;52.206;4.856;2023-05-03T18:56:04;11.90;99.90
36548;DHT22;22551;52.206;4.856;2023-05-03T19:01:08;11.90;99.90
36548;DHT22;22551;52.206;4.856;2023-05-03T19:06:11;11.90;99.90
36548;DHT22;22551;52.206;4.856;2023-05-03T19:11:14;11.90;99.90
36548;DHT22;22551;52.206;4.856;2023-05-03T19:16:18;11.80;99.90
36548;DHT22;22551;52.206;4.856;2023-05-03T19:21:20;11.80;99.90
36548;DHT22;22551;52.206;4.856;2023-05-03T19:26:22;11.80;99.90
36548;DHT22;22551;52.206;4.856;2023-05-03T19:31:26;11.80;99.90
36548;DHT22;22551;52.206;4.856;2023-05-03T19:36:29;11.80;99.90
36548;DHT22;22551;52.206;4.856;2023-05-03T19:41:31;11.80;99.90
36548;DHT22;22551;52.206;4.856;2023-05-03T19:46:35;11.70;99.90
36548;DHT22;22551;52.206;4.856;2023-05-03T19:51:37;11.70;99.90
36548;DHT22;22551;52.206;4.856;2023-05-03T19:56:39;11.70;99.90
36548;DHT22;22551;52.206;4.856;2023-05-03T20:01:43;11.70;99.90
36548;DHT22;22551;52.206;4.856;2023-05-03T20:06:45;11.60;99.90
36548;DHT22;22551;52.206;4.856;2023-05-03T20:11:47;11.60;99.90
36548;DHT22;22551;52.206;4.856;2023-05-03T20:16:51;11.60;99.90
36548;DHT22;22551;52.206;4.856;2023-05-03T20:21:53;11.50;99.90
36548;DHT22;22551;52.206;4.856;2023-05-03T20:26:56;11.40;99.90
36548;DHT22;22551;52.206;4.856;2023-05-03T20:31:59;11.30;99.90
36548;DHT22;22551;52.206;4.856;2023-05-03T20:37:02;11.20;99.90
36548;DHT22;22551;52.206;4.856;2023-05-03T20:42:04;11.20;99.90
36548;DHT22;22551;52.206;4.856;2023-05-03T20:47:07;11.10;99.90
36548;DHT22;22551;52.206;4.856;2023-05-03T20:52:10;11.10;99.90
36548;DHT22;22551;52.206;4.856;2023-05-03T20:57:12;10.90;99.90
36548;DHT22;22551;52.206;4.856;2023-05-03T21:02:17;10.90;99.90
36548;DHT22;22551;52.206;4.856;2023-05-03T21:07:19;10.80;99.90
36548;DHT22;22551;52.206;4.856;2023-05-03T21:12:22;10.70;99.90
36548;DHT22;22551;52.206;4.856;2023-05-03T21:17:27;10.60;99.90
36548;DHT22;22551;52.206;4.856;2023-05-03T21:22:29;10.50;99.90
36548;DHT22;22551;52.206;4.856;2023-05-03T21:27:32;10.40;99.90
36548;DHT22;22551;52.206;4.856;2023-05-03T21:32:36;10.40;99.90
36548;DHT22;22551;52.206;4.856;2023-05-03T21:37:38;10.30;99.90
36548;DHT22;22551;52.206;4.856;2023-05-03T21:42:40;10.30;99.90
36548;DHT22;22551;52.206;4.856;2023-05-03T21:47:44;10.20;99.90
36548;DHT22;22551;52.206;4.856;2023-05-03T21:52:46;10.10;99.90
36548;DHT22;22551;52.206;4.856;2023-05-03T21:57:48;10.00;99.90
36548;DHT22;22551;52.206;4.856;2023-05-03T22:02:52;10.00;99.90
36548;DHT22;22551;52.206;4.856;2023-05-03T22:07:54;9.90;99.90
36548;DHT22;22551;52.206;4.856;2023-05-03T22:12:56;9.80;99.90
36548;DHT22;22551;52.206;4.856;2023-05-03T22:18:00;9.80;99.90
36548;DHT22;22551;52.206;4.856;2023-05-03T22:23:02;9.70;99.90
36548;DHT22;22551;52.206;4.856;2023-05-03T22:28:04;9.70;99.90
36548;DHT22;22551;52.206;4.856;2023-05-03T22:33:07;9.60;99.90
36548;DHT22;22551;52.206;4.856;2023-05-03T22:38:10;9.50;99.90
36548;DHT22;22551;52.206;4.856;2023-05-03T22:43:12;9.50;99.90
36548;DHT22;22551;52.206;4.856;2023-05-03T22:48:15;9.40;99.90
36548;DHT22;22551;52.206;4.856;2023-05-03T22:53:17;9.40;99.90
36548;DHT22;22551;52.206;4.856;2023-05-03T22:58:20;9.40;99.90
36548;DHT22;22551;52.206;4.856;2023-05-03T23:03:23;9.30;99.90
36548;DHT22;22551;52.206;4.856;2023-05-03T23:08:26;9.30;99.90
36548;DHT22;22551;52.206;4.856;2023-05-03T23:13:28;9.20;99.90
36548;DHT22;22551;52.206;4.856;2023-05-03T23:18:32;9.20;99.90
36548;DHT22;22551;52.206;4.856;2023-05-03T23:23:34;9.10;99.90
36548;DHT22;22551;52.206;4.856;2023-05-03T23:28:36;9.20;99.90
36548;DHT22;22551;52.206;4.856;2023-05-03T23:33:40;9.10;99.90
36548;DHT22;22551;52.206;4.856;2023-05-03T23:38:42;9.20;99.90
36548;DHT22;22551;52.206;4.856;2023-05-03T23:43:44;9.10;99.90
36548;DHT22;22551;52.206;4.856;2023-05-03T23:48:47;9.10;99.90
36548;DHT22;22551;52.206;4.856;2023-05-03T23:53:50;9.00;99.90
36548;DHT22;22551;52.206;4.856;2023-05-03T23:58:52;9.00;99.90
